sensor_id;sensor_type;location;lat;lon;timestamp;temperature;humidity
18934;DHT22;9599;53.706;10.384;2022-07-06T00:01:04;16.00;99.90
18934;DHT22;9599;53.706;10.384;2022-07-06T00:03:32;16.00;99.90
18934;DHT22;9599;53.706;10.384;2022-07-06T00:06:00;16.00;99.90
18934;DHT22;9599;53.706;10.384;2022-07-06T00:08:29;15.90;99.90
18934;DHT22;9599;53.706;10.384;2022-07-06T00:10:57;15.90;99.90
18934;DHT22;9599;53.706;10.384;2022-07-06T00:13:25;15.90;99.90
18934;DHT22;9599;53.706;10.384;2022-07-06T00:15:53;15.80;99.90
18934;DHT22;9599;53.706;10.384;2022-07-06T00:18:21;15.80;99.90
18934;DHT22;9599;53.706;10.384;2022-07-06T00:20:50;15.80;99.90
18934;DHT22;9599;53.706;10.384;2022-07-06T00:23:19;15.80;99.90
18934;DHT22;9599;53.706;10.384;2022-07-06T00:25:48;15.80;99.90
18934;DHT22;9599;53.706;10.384;2022-07-06T00:28:16;15.80;99.90
18934;DHT22;9599;53.706;10.384;2022-07-06T00:30:45;15.80;99.90
18934;DHT22;9599;53.706;10.384;2022-07-06T00:33:13;15.90;99.90
18934;DHT22;9599;53.706;10.384;2022-07-06T00:35:41;15.90;99.90
18934;DHT22;9599;53.706;10.384;2022-07-06T00:38:09;15.80;99.90
18934;DHT22;9599;53.706;10.384;2022-07-06T00:40:37;15.80;99.90
18934;DHT22;9599;53.706;10.384;2022-07-06T00:43:07;15.80;99.90
18934;DHT22;9599;53.706;10.384;2022-07-06T00:45:35;15.80;99.90
18934;DHT22;9599;53.706;10.384;2022-07-06T00:48:03;15.80;99.90
18934;DHT22;9599;53.706;10.384;2022-07-06T00:50:32;15.70;99.90
18934;DHT22;9599;53.706;10.384;2022-07-06T00:53:04;15.70;99.90
18934;DHT22;9599;53.706;10.384;2022-07-06T00:55:34;15.70;99.90
18934;DHT22;9599;53.706;10.384;2022-07-06T00:58:03;15.70;99.90
18934;DHT22;9599;53.706;10.384;2022-07-06T01:00:33;15.70;99.90
18934;DHT22;9599;53.706;10.384;2022-07-06T01:03:01;15.70;99.90
18934;DHT22;9599;53.706;10.384;2022-07-06T01:05:29;15.70;99.90
18934;DHT22;9599;53.706;10.384;2022-07-06T01:07:57;15.70;99.90
18934;DHT22;9599;53.706;10.384;2022-07-06T01:10:26;15.70;99.90
18934;DHT22;9599;53.706;10.384;2022-07-06T01:12:55;15.70;99.90
18934;DHT22;9599;53.706;10.384;2022-07-06T01:15:25;15.70;99.90
18934;DHT22;9599;53.706;10.384;2022-07-06T01:17:55;15.70;99.90
18934;DHT22;9599;53.706;10.384;2022-07-06T01:20:30;15.70;99.90
18934;DHT22;9599;53.706;10.384;2022-07-06T01:22:59;15.70;99.90
18934;DHT22;9599;53.706;10.384;2022-07-06T01:25:27;15.70;99.90
18934;DHT22;9599;53.706;10.384;2022-07-06T01:27:56;15.70;99.90
18934;DHT22;9599;53.706;10.384;2022-07-06T01:30:24;15.70;99.90
18934;DHT22;9599;53.706;10.384;2022-07-06T01:32:52;15.60;99.90
18934;DHT22;9599;53.706;10.384;2022-07-06T01:35:20;15.70;99.90
18934;DHT22;9599;53.706;10.384;2022-07-06T01:37:50;15.70;99.90
18934;DHT22;9599;53.706;10.384;2022-07-06T01:40:19;15.70;99.90
18934;DHT22;9599;53.706;10.384;2022-07-06T01:42:46;15.60;99.90
18934;DHT22;9599;53.706;10.384;2022-07-06T01:45:14;15.60;99.90
18934;DHT22;9599;53.706;10.384;2022-07-06T01:47:42;15.60;99.90
18934;DHT22;9599;53.706;10.384;2022-07-06T01:50:10;15.60;99.90
18934;DHT22;9599;53.706;10.384;2022-07-06T01:52:44;15.60;99.90
18934;DHT22;9599;53.706;10.384;2022-07-06T01:55:13;15.60;99.90
18934;DHT22;9599;53.706;10.384;2022-07-06T01:57:42;15.50;99.90
18934;DHT22;9599;53.706;10.384;2022-07-06T02:00:11;15.50;99.90
18934;DHT22;9599;53.706;10.384;2022-07-06T02:02:40;15.50;99.90
18934;DHT22;9599;53.706;10.384;2022-07-06T02:05:11;15.50;99.90
18934;DHT22;9599;53.706;10.384;2022-07-06T02:07:39;15.40;99.90
18934;DHT22;9599;53.706;10.384;2022-07-06T02:10:09;15.50;99.90
18934;DHT22;9599;53.706;10.384;2022-07-06T02:12:38;15.40;99.90
18934;DHT22;9599;53.706;10.384;2022-07-06T02:15:07;15.40;99.90
18934;DHT22;9599;53.706;10.384;2022-07-06T02:17:35;15.40;99.90
18934;DHT22;9599;53.706;10.384;2022-07-06T02:20:04;15.40;99.90
18934;DHT22;9599;53.706;10.384;2022-07-06T02:22:32;15.50;99.90
18934;DHT22;9599;53.706;10.384;2022-07-06T02:25:01;15.40;99.90
18934;DHT22;9599;53.706;10.384;2022-07-06T02:27:30;15.40;99.90
18934;DHT22;9599;53.706;10.384;2022-07-06T02:30:02;15.40;99.90
18934;DHT22;9599;53.706;10.384;2022-07-06T02:32:31;15.40;99.90
18934;DHT22;9599;53.706;10.384;2022-07-06T02:34:59;15.40;99.90
18934;DHT22;9599;53.706;10.384;2022-07-06T02:37:27;15.50;99.90
18934;DHT22;9599;53.706;10.384;2022-07-06T02:39:55;15.40;99.90
18934;DHT22;9599;53.706;10.384;2022-07-06T02:42:25;15.30;99.90
18934;DHT22;9599;53.706;10.384;2022-07-06T02:44:53;15.30;99.90
18934;DHT22;9599;53.706;10.384;2022-07-06T02:47:22;15.20;99.90
18934;DHT22;9599;53.706;10.384;2022-07-06T02:49:50;15.20;99.90
18934;DHT22;9599;53.706;10.384;2022-07-06T02:52:20;15.10;99.90
18934;DHT22;9599;53.706;10.384;2022-07-06T02:54:48;15.10;99.90
18934;DHT22;9599;53.706;10.384;2022-07-06T02:57:17;15.10;99.90
18934;DHT22;9599;53.706;10.384;2022-07-06T02:59:45;15.10;99.90
18934;DHT22;9599;53.706;10.384;2022-07-06T03:02:17;15.10;99.90
18934;DHT22;9599;53.706;10.384;2022-07-06T03:04:46;15.10;99.90
18934;DHT22;9599;53.706;10.384;2022-07-06T03:07:15;15.10;99.90
18934;DHT22;9599;53.706;10.384;2022-07-06T03:09:44;15.00;99.90
18934;DHT22;9599;53.706;10.384;2022-07-06T03:12:12;15.00;99.90
18934;DHT22;9599;53.706;10.384;2022-07-06T03:14:40;15.00;99.90
18934;DHT22;9599;53.706;10.384;2022-07-06T03:17:09;15.00;99.90
18934;DHT22;9599;53.706;10.384;2022-07-06T03:19:37;15.00;99.90
18934;DHT22;9599;53.706;10.384;2022-07-06T03:22:06;15.00;99.90
18934;DHT22;9599;53.706;10.384;2022-07-06T03:24:34;15.10;99.90
18934;DHT22;9599;53.706;10.384;2022-07-06T03:27:03;15.10;99.90
18934;DHT22;9599;53.706;10.384;2022-07-06T03:29:32;15.10;99.90
18934;DHT22;9599;53.706;10.384;2022-07-06T03:32:02;15.20;99.90
18934;DHT22;9599;53.706;10.384;2022-07-06T03:34:31;15.20;99.90
18934;DHT22;9599;53.706;10.384;2022-07-06T03:36:59;15.20;99.90
18934;DHT22;9599;53.706;10.384;2022-07-06T03:39:29;15.20;99.90
18934;DHT22;9599;53.706;10.384;2022-07-06T03:41:59;15.20;99.90
18934;DHT22;9599;53.706;10.384;2022-07-06T03:44:28;15.20;99.90
18934;DHT22;9599;53.706;10.384;2022-07-06T03:46:56;15.20;99.90
18934;DHT22;9599;53.706;10.384;2022-07-06T03:49:25;15.30;99.90
18934;DHT22;9599;53.706;10.384;2022-07-06T03:51:57;15.30;99.90
18934;DHT22;9599;53.706;10.384;2022-07-06T03:54:26;15.40;99.90
18934;DHT22;9599;53.706;10.384;2022-07-06T03:56:58;15.40;99.90
18934;DHT22;9599;53.706;10.384;2022-07-06T03:59:26;15.40;99.90
18934;DHT22;9599;53.706;10.384;2022-07-06T04:01:55;15.40;99.90
18934;DHT22;9599;53.706;10.384;2022-07-06T04:04:23;15.40;99.90
18934;DHT22;9599;53.706;10.384;2022-07-06T04:06:52;15.40;99.90
18934;DHT22;9599;53.706;10.384;2022-07-06T04:09:20;15.50;99.90
18934;DHT22;9599;53.706;10.384;2022-07-06T04:11:49;15.50;99.90
18934;DHT22;9599;53.706;10.384;2022-07-06T04:14:18;15.50;99.90
18934;DHT22;9599;53.706;10.384;2022-07-06T04:16:47;15.60;99.90
18934;DHT22;9599;53.706;10.384;2022-07-06T04:19:15;15.60;99.90
18934;DHT22;9599;53.706;10.384;2022-07-06T04:21:43;15.60;99.90
18934;DHT22;9599;53.706;10.384;2022-07-06T04:24:11;15.60;99.90
18934;DHT22;9599;53.706;10.384;2022-07-06T04:26:39;15.50;99.90
18934;DHT22;9599;53.706;10.384;2022-07-06T04:29:08;15.40;99.90
18934;DHT22;9599;53.706;10.384;2022-07-06T04:31:38;15.40;99.90
18934;DHT22;9599;53.706;10.384;2022-07-06T04:34:06;15.50;99.90
18934;DHT22;9599;53.706;10.384;2022-07-06T04:36:34;15.50;99.90
18934;DHT22;9599;53.706;10.384;2022-07-06T04:39:02;15.50;99.90
18934;DHT22;9599;53.706;10.384;2022-07-06T04:41:30;15.40;99.90
18934;DHT22;9599;53.706;10.384;2022-07-06T04:43:58;15.40;99.90
18934;DHT22;9599;53.706;10.384;2022-07-06T04:46:26;15.30;99.90
18934;DHT22;9599;53.706;10.384;2022-07-06T04:48:57;15.40;99.90
18934;DHT22;9599;53.706;10.384;2022-07-06T04:51:29;15.40;99.90
18934;DHT22;9599;53.706;10.384;2022-07-06T04:53:57;15.50;99.90
18934;DHT22;9599;53.706;10.384;2022-07-06T04:56:26;15.50;99.90
18934;DHT22;9599;53.706;10.384;2022-07-06T04:58:55;15.60;99.90
18934;DHT22;9599;53.706;10.384;2022-07-06T05:01:23;15.60;99.90
18934;DHT22;9599;53.706;10.384;2022-07-06T05:03:51;15.50;99.90
18934;DHT22;9599;53.706;10.384;2022-07-06T05:06:23;15.50;99.90
18934;DHT22;9599;53.706;10.384;2022-07-06T05:08:51;15.60;99.90
18934;DHT22;9599;53.706;10.384;2022-07-06T05:11:20;15.60;99.90
18934;DHT22;9599;53.706;10.384;2022-07-06T05:13:49;15.60;99.90
18934;DHT22;9599;53.706;10.384;2022-07-06T05:16:17;15.50;99.90
18934;DHT22;9599;53.706;10.384;2022-07-06T05:18:45;15.30;99.90
18934;DHT22;9599;53.706;10.384;2022-07-06T05:21:14;15.30;99.90
18934;DHT22;9599;53.706;10.384;2022-07-06T05:23:43;15.40;99.90
18934;DHT22;9599;53.706;10.384;2022-07-06T05:26:11;15.50;99.90
18934;DHT22;9599;53.706;10.384;2022-07-06T05:28:39;15.60;99.90
18934;DHT22;9599;53.706;10.384;2022-07-06T05:31:11;15.70;99.90
18934;DHT22;9599;53.706;10.384;2022-07-06T05:33:40;15.60;99.90
18934;DHT22;9599;53.706;10.384;2022-07-06T05:36:09;15.50;99.90
18934;DHT22;9599;53.706;10.384;2022-07-06T05:38:38;15.60;99.90
18934;DHT22;9599;53.706;10.384;2022-07-06T05:41:07;15.50;99.90
18934;DHT22;9599;53.706;10.384;2022-07-06T05:43:36;15.50;99.90
18934;DHT22;9599;53.706;10.384;2022-07-06T05:46:04;15.50;99.90
18934;DHT22;9599;53.706;10.384;2022-07-06T05:48:34;15.50;99.90
18934;DHT22;9599;53.706;10.384;2022-07-06T05:51:19;15.50;99.90
18934;DHT22;9599;53.706;10.384;2022-07-06T05:53:47;15.60;99.90
18934;DHT22;9599;53.706;10.384;2022-07-06T05:56:17;15.80;99.90
18934;DHT22;9599;53.706;10.384;2022-07-06T05:58:45;15.80;99.90
18934;DHT22;9599;53.706;10.384;2022-07-06T06:01:13;15.90;99.90
18934;DHT22;9599;53.706;10.384;2022-07-06T06:03:46;16.00;99.90
18934;DHT22;9599;53.706;10.384;2022-07-06T06:06:14;15.90;99.90
18934;DHT22;9599;53.706;10.384;2022-07-06T06:08:42;15.70;99.90
18934;DHT22;9599;53.706;10.384;2022-07-06T06:11:10;15.80;99.90
18934;DHT22;9599;53.706;10.384;2022-07-06T06:13:41;15.80;99.90
18934;DHT22;9599;53.706;10.384;2022-07-06T06:16:10;15.80;99.90
18934;DHT22;9599;53.706;10.384;2022-07-06T06:18:39;15.80;99.90
18934;DHT22;9599;53.706;10.384;2022-07-06T06:21:09;15.90;99.90
18934;DHT22;9599;53.706;10.384;2022-07-06T06:23:37;15.90;99.90
18934;DHT22;9599;53.706;10.384;2022-07-06T06:26:05;16.00;99.90
18934;DHT22;9599;53.706;10.384;2022-07-06T06:28:33;16.10;99.90
18934;DHT22;9599;53.706;10.384;2022-07-06T06:31:02;16.20;99.90
18934;DHT22;9599;53.706;10.384;2022-07-06T06:33:30;16.30;99.90
18934;DHT22;9599;53.706;10.384;2022-07-06T06:35:58;16.40;99.90
18934;DHT22;9599;53.706;10.384;2022-07-06T06:38:26;16.40;99.90
18934;DHT22;9599;53.706;10.384;2022-07-06T06:40:56;16.60;99.90
18934;DHT22;9599;53.706;10.384;2022-07-06T06:43:24;16.90;99.90
18934;DHT22;9599;53.706;10.384;2022-07-06T06:46:02;17.10;99.90
18934;DHT22;9599;53.706;10.384;2022-07-06T06:48:30;17.10;99.90
18934;DHT22;9599;53.706;10.384;2022-07-06T06:50:58;17.20;99.90
18934;DHT22;9599;53.706;10.384;2022-07-06T06:53:26;17.20;99.90
18934;DHT22;9599;53.706;10.384;2022-07-06T06:55:54;17.30;99.90
18934;DHT22;9599;53.706;10.384;2022-07-06T06:58:22;17.30;99.90
18934;DHT22;9599;53.706;10.384;2022-07-06T07:00:50;17.30;99.90
18934;DHT22;9599;53.706;10.384;2022-07-06T07:03:20;17.20;99.90
18934;DHT22;9599;53.706;10.384;2022-07-06T07:05:47;17.10;99.90
18934;DHT22;9599;53.706;10.384;2022-07-06T07:08:15;17.20;99.90
18934;DHT22;9599;53.706;10.384;2022-07-06T07:10:43;17.20;99.90
18934;DHT22;9599;53.706;10.384;2022-07-06T07:13:11;17.20;99.90
18934;DHT22;9599;53.706;10.384;2022-07-06T07:15:39;17.20;99.90
18934;DHT22;9599;53.706;10.384;2022-07-06T07:18:07;17.20;99.90
18934;DHT22;9599;53.706;10.384;2022-07-06T07:20:50;17.30;99.90
18934;DHT22;9599;53.706;10.384;2022-07-06T07:23:18;17.30;99.90
18934;DHT22;9599;53.706;10.384;2022-07-06T07:25:46;17.40;99.90
18934;DHT22;9599;53.706;10.384;2022-07-06T07:28:13;17.40;99.90
18934;DHT22;9599;53.706;10.384;2022-07-06T07:30:41;17.50;99.90
18934;DHT22;9599;53.706;10.384;2022-07-06T07:33:09;17.70;99.90
18934;DHT22;9599;53.706;10.384;2022-07-06T07:35:37;17.80;99.90
18934;DHT22;9599;53.706;10.384;2022-07-06T07:38:06;17.90;99.90
18934;DHT22;9599;53.706;10.384;2022-07-06T07:40:34;17.80;99.90
18934;DHT22;9599;53.706;10.384;2022-07-06T07:43:02;17.90;99.90
18934;DHT22;9599;53.706;10.384;2022-07-06T07:45:30;17.90;99.90
18934;DHT22;9599;53.706;10.384;2022-07-06T07:47:58;18.00;99.90
18934;DHT22;9599;53.706;10.384;2022-07-06T07:50:26;18.10;99.90
18934;DHT22;9599;53.706;10.384;2022-07-06T07:52:56;18.10;99.90
18934;DHT22;9599;53.706;10.384;2022-07-06T07:55:25;18.00;99.90
18934;DHT22;9599;53.706;10.384;2022-07-06T07:58:07;18.00;99.90
18934;DHT22;9599;53.706;10.384;2022-07-06T08:00:35;17.90;99.90
18934;DHT22;9599;53.706;10.384;2022-07-06T08:03:03;17.70;99.90
18934;DHT22;9599;53.706;10.384;2022-07-06T08:05:31;17.50;99.90
18934;DHT22;9599;53.706;10.384;2022-07-06T08:07:59;17.40;99.90
18934;DHT22;9599;53.706;10.384;2022-07-06T08:10:28;17.40;99.90
18934;DHT22;9599;53.706;10.384;2022-07-06T08:13:07;17.30;99.90
18934;DHT22;9599;53.706;10.384;2022-07-06T08:15:35;17.30;99.90
18934;DHT22;9599;53.706;10.384;2022-07-06T08:18:03;17.40;99.90
18934;DHT22;9599;53.706;10.384;2022-07-06T08:20:31;17.60;99.90
18934;DHT22;9599;53.706;10.384;2022-07-06T08:22:59;17.60;99.90
18934;DHT22;9599;53.706;10.384;2022-07-06T08:25:28;17.70;99.90
18934;DHT22;9599;53.706;10.384;2022-07-06T08:27:56;17.80;99.90
18934;DHT22;9599;53.706;10.384;2022-07-06T08:30:24;17.70;99.90
18934;DHT22;9599;53.706;10.384;2022-07-06T08:32:52;17.60;99.90
18934;DHT22;9599;53.706;10.384;2022-07-06T08:35:36;17.50;99.90
18934;DHT22;9599;53.706;10.384;2022-07-06T08:38:03;17.50;99.90
18934;DHT22;9599;53.706;10.384;2022-07-06T08:40:34;17.50;99.90
18934;DHT22;9599;53.706;10.384;2022-07-06T08:43:03;17.70;99.90
18934;DHT22;9599;53.706;10.384;2022-07-06T08:45:33;17.70;99.90
18934;DHT22;9599;53.706;10.384;2022-07-06T08:48:05;17.70;99.90
18934;DHT22;9599;53.706;10.384;2022-07-06T08:50:33;17.70;99.90
18934;DHT22;9599;53.706;10.384;2022-07-06T08:53:02;17.90;99.90
18934;DHT22;9599;53.706;10.384;2022-07-06T08:55:32;18.00;99.90
18934;DHT22;9599;53.706;10.384;2022-07-06T08:58:00;18.20;99.90
18934;DHT22;9599;53.706;10.384;2022-07-06T09:00:28;18.30;99.90
18934;DHT22;9599;53.706;10.384;2022-07-06T09:02:57;18.40;99.90
18934;DHT22;9599;53.706;10.384;2022-07-06T09:05:25;18.70;99.90
18934;DHT22;9599;53.706;10.384;2022-07-06T09:07:53;18.90;99.90
18934;DHT22;9599;53.706;10.384;2022-07-06T09:10:26;19.00;99.90
18934;DHT22;9599;53.706;10.384;2022-07-06T09:13:03;18.90;99.90
18934;DHT22;9599;53.706;10.384;2022-07-06T09:15:32;18.90;99.90
18934;DHT22;9599;53.706;10.384;2022-07-06T09:18:00;18.90;99.90
18934;DHT22;9599;53.706;10.384;2022-07-06T09:20:29;18.80;99.90
18934;DHT22;9599;53.706;10.384;2022-07-06T09:22:58;18.60;99.90
18934;DHT22;9599;53.706;10.384;2022-07-06T09:25:27;18.40;99.90
18934;DHT22;9599;53.706;10.384;2022-07-06T09:27:57;18.00;99.90
18934;DHT22;9599;53.706;10.384;2022-07-06T09:30:28;17.70;99.90
18934;DHT22;9599;53.706;10.384;2022-07-06T09:32:57;17.20;99.90
18934;DHT22;9599;53.706;10.384;2022-07-06T09:35:26;17.00;99.90
18934;DHT22;9599;53.706;10.384;2022-07-06T09:38:03;16.90;99.90
18934;DHT22;9599;53.706;10.384;2022-07-06T09:40:32;16.90;99.90
18934;DHT22;9599;53.706;10.384;2022-07-06T09:43:14;17.00;99.90
18934;DHT22;9599;53.706;10.384;2022-07-06T09:45:47;17.20;99.90
18934;DHT22;9599;53.706;10.384;2022-07-06T09:48:17;17.40;99.90
18934;DHT22;9599;53.706;10.384;2022-07-06T09:50:50;17.50;99.90
18934;DHT22;9599;53.706;10.384;2022-07-06T09:53:20;17.70;99.90
18934;DHT22;9599;53.706;10.384;2022-07-06T09:55:50;18.00;99.90
18934;DHT22;9599;53.706;10.384;2022-07-06T09:58:18;18.30;99.90
18934;DHT22;9599;53.706;10.384;2022-07-06T10:01:09;18.30;99.90
18934;DHT22;9599;53.706;10.384;2022-07-06T10:03:38;18.40;99.90
18934;DHT22;9599;53.706;10.384;2022-07-06T10:06:06;18.40;99.90
18934;DHT22;9599;53.706;10.384;2022-07-06T10:08:35;18.60;99.90
18934;DHT22;9599;53.706;10.384;2022-07-06T10:11:03;18.70;99.90
18934;DHT22;9599;53.706;10.384;2022-07-06T10:13:34;18.70;99.90
18934;DHT22;9599;53.706;10.384;2022-07-06T10:16:03;18.90;99.90
18934;DHT22;9599;53.706;10.384;2022-07-06T10:18:34;19.00;99.90
18934;DHT22;9599;53.706;10.384;2022-07-06T10:21:02;19.20;99.90
18934;DHT22;9599;53.706;10.384;2022-07-06T10:23:30;19.00;99.90
18934;DHT22;9599;53.706;10.384;2022-07-06T10:26:00;19.10;99.90
18934;DHT22;9599;53.706;10.384;2022-07-06T10:28:29;19.00;99.90
18934;DHT22;9599;53.706;10.384;2022-07-06T10:30:57;18.80;99.90
18934;DHT22;9599;53.706;10.384;2022-07-06T10:33:26;18.70;99.90
18934;DHT22;9599;53.706;10.384;2022-07-06T10:35:56;18.60;99.90
18934;DHT22;9599;53.706;10.384;2022-07-06T10:38:31;18.60;99.90
18934;DHT22;9599;53.706;10.384;2022-07-06T10:41:02;18.60;99.90
18934;DHT22;9599;53.706;10.384;2022-07-06T10:43:34;18.70;99.90
18934;DHT22;9599;53.706;10.384;2022-07-06T10:46:06;18.90;99.90
18934;DHT22;9599;53.706;10.384;2022-07-06T10:48:35;19.00;99.90
18934;DHT22;9599;53.706;10.384;2022-07-06T10:51:04;19.00;99.90
18934;DHT22;9599;53.706;10.384;2022-07-06T10:53:33;19.00;99.90
18934;DHT22;9599;53.706;10.384;2022-07-06T10:56:03;18.90;99.90
18934;DHT22;9599;53.706;10.384;2022-07-06T10:58:49;18.90;99.90
18934;DHT22;9599;53.706;10.384;2022-07-06T11:01:19;18.70;99.90
18934;DHT22;9599;53.706;10.384;2022-07-06T11:03:48;18.70;99.90
18934;DHT22;9599;53.706;10.384;2022-07-06T11:06:19;18.70;99.90
18934;DHT22;9599;53.706;10.384;2022-07-06T11:08:53;18.80;99.90
18934;DHT22;9599;53.706;10.384;2022-07-06T11:11:23;18.90;99.90
18934;DHT22;9599;53.706;10.384;2022-07-06T11:13:53;19.10;99.90
18934;DHT22;9599;53.706;10.384;2022-07-06T11:16:23;19.30;99.90
18934;DHT22;9599;53.706;10.384;2022-07-06T11:19:10;19.40;99.90
18934;DHT22;9599;53.706;10.384;2022-07-06T11:21:44;19.50;99.90
18934;DHT22;9599;53.706;10.384;2022-07-06T11:24:13;19.60;99.90
18934;DHT22;9599;53.706;10.384;2022-07-06T11:26:45;20.30;99.90
18934;DHT22;9599;53.706;10.384;2022-07-06T11:29:14;20.40;97.90
18934;DHT22;9599;53.706;10.384;2022-07-06T11:31:44;20.40;99.90
18934;DHT22;9599;53.706;10.384;2022-07-06T11:34:14;20.30;99.90
18934;DHT22;9599;53.706;10.384;2022-07-06T11:36:46;20.60;99.70
18934;DHT22;9599;53.706;10.384;2022-07-06T11:39:15;20.90;99.90
18934;DHT22;9599;53.706;10.384;2022-07-06T11:41:43;20.90;99.10
18934;DHT22;9599;53.706;10.384;2022-07-06T11:44:17;20.90;99.60
18934;DHT22;9599;53.706;10.384;2022-07-06T11:46:45;21.00;99.10
18934;DHT22;9599;53.706;10.384;2022-07-06T11:49:14;21.30;98.90
18934;DHT22;9599;53.706;10.384;2022-07-06T11:51:44;21.50;99.10
18934;DHT22;9599;53.706;10.384;2022-07-06T11:54:15;21.50;97.10
18934;DHT22;9599;53.706;10.384;2022-07-06T11:56:47;21.40;97.40
18934;DHT22;9599;53.706;10.384;2022-07-06T11:59:16;21.30;97.80
18934;DHT22;9599;53.706;10.384;2022-07-06T12:01:48;21.70;99.50
18934;DHT22;9599;53.706;10.384;2022-07-06T12:04:16;22.20;97.70
18934;DHT22;9599;53.706;10.384;2022-07-06T12:06:44;21.80;96.50
18934;DHT22;9599;53.706;10.384;2022-07-06T12:09:13;21.50;97.60
18934;DHT22;9599;53.706;10.384;2022-07-06T12:11:44;21.30;98.20
18934;DHT22;9599;53.706;10.384;2022-07-06T12:14:14;21.30;98.40
18934;DHT22;9599;53.706;10.384;2022-07-06T12:16:42;21.10;98.00
18934;DHT22;9599;53.706;10.384;2022-07-06T12:19:10;20.70;98.80
18934;DHT22;9599;53.706;10.384;2022-07-06T12:21:43;20.30;98.80
18934;DHT22;9599;53.706;10.384;2022-07-06T12:24:19;19.90;99.30
18934;DHT22;9599;53.706;10.384;2022-07-06T12:26:48;19.60;99.60
18934;DHT22;9599;53.706;10.384;2022-07-06T12:29:16;19.20;99.60
18934;DHT22;9599;53.706;10.384;2022-07-06T12:31:49;18.90;99.90
18934;DHT22;9599;53.706;10.384;2022-07-06T12:34:19;18.90;99.90
18934;DHT22;9599;53.706;10.384;2022-07-06T12:36:49;18.70;99.90
18934;DHT22;9599;53.706;10.384;2022-07-06T12:39:20;18.60;99.90
18934;DHT22;9599;53.706;10.384;2022-07-06T12:41:49;18.60;99.90
18934;DHT22;9599;53.706;10.384;2022-07-06T12:44:19;18.80;99.90
18934;DHT22;9599;53.706;10.384;2022-07-06T12:46:48;19.20;99.90
18934;DHT22;9599;53.706;10.384;2022-07-06T12:49:19;19.80;99.90
18934;DHT22;9599;53.706;10.384;2022-07-06T12:52:00;20.40;99.90
18934;DHT22;9599;53.706;10.384;2022-07-06T12:54:32;20.60;97.90
18934;DHT22;9599;53.706;10.384;2022-07-06T12:57:08;20.80;99.20
18934;DHT22;9599;53.706;10.384;2022-07-06T12:59:41;20.70;97.70
18934;DHT22;9599;53.706;10.384;2022-07-06T13:02:17;20.60;98.40
18934;DHT22;9599;53.706;10.384;2022-07-06T13:04:54;20.70;98.80
18934;DHT22;9599;53.706;10.384;2022-07-06T13:07:23;20.70;97.10
18934;DHT22;9599;53.706;10.384;2022-07-06T13:09:52;20.70;97.60
18934;DHT22;9599;53.706;10.384;2022-07-06T13:12:21;20.90;98.50
18934;DHT22;9599;53.706;10.384;2022-07-06T13:14:49;21.30;97.00
18934;DHT22;9599;53.706;10.384;2022-07-06T13:17:17;21.60;96.80
18934;DHT22;9599;53.706;10.384;2022-07-06T13:19:45;21.60;95.10
18934;DHT22;9599;53.706;10.384;2022-07-06T13:22:14;21.30;95.50
18934;DHT22;9599;53.706;10.384;2022-07-06T13:24:42;21.00;95.40
18934;DHT22;9599;53.706;10.384;2022-07-06T13:27:11;20.90;95.80
18934;DHT22;9599;53.706;10.384;2022-07-06T13:29:40;21.10;95.20
18934;DHT22;9599;53.706;10.384;2022-07-06T13:32:08;21.20;95.30
18934;DHT22;9599;53.706;10.384;2022-07-06T13:34:36;21.20;94.10
18934;DHT22;9599;53.706;10.384;2022-07-06T13:37:04;21.30;92.30
18934;DHT22;9599;53.706;10.384;2022-07-06T13:39:33;21.10;93.50
18934;DHT22;9599;53.706;10.384;2022-07-06T13:42:01;20.90;93.70
18934;DHT22;9599;53.706;10.384;2022-07-06T13:44:30;20.80;93.40
18934;DHT22;9599;53.706;10.384;2022-07-06T13:46:58;20.90;92.90
18934;DHT22;9599;53.706;10.384;2022-07-06T13:49:26;20.90;94.20
18934;DHT22;9599;53.706;10.384;2022-07-06T13:51:58;21.30;95.00
18934;DHT22;9599;53.706;10.384;2022-07-06T13:54:30;21.40;93.80
18934;DHT22;9599;53.706;10.384;2022-07-06T13:57:02;21.10;93.70
18934;DHT22;9599;53.706;10.384;2022-07-06T13:59:31;21.30;94.60
18934;DHT22;9599;53.706;10.384;2022-07-06T14:01:59;21.40;93.90
18934;DHT22;9599;53.706;10.384;2022-07-06T14:04:27;21.20;93.50
18934;DHT22;9599;53.706;10.384;2022-07-06T14:06:55;21.20;92.70
18934;DHT22;9599;53.706;10.384;2022-07-06T14:09:23;20.90;93.60
18934;DHT22;9599;53.706;10.384;2022-07-06T14:11:51;20.90;94.20
18934;DHT22;9599;53.706;10.384;2022-07-06T14:14:19;21.00;94.80
18934;DHT22;9599;53.706;10.384;2022-07-06T14:16:48;20.90;93.70
18934;DHT22;9599;53.706;10.384;2022-07-06T14:19:17;20.70;93.40
18934;DHT22;9599;53.706;10.384;2022-07-06T14:21:47;20.70;93.60
18934;DHT22;9599;53.706;10.384;2022-07-06T14:24:15;20.70;93.90
18934;DHT22;9599;53.706;10.384;2022-07-06T14:26:43;20.80;94.00
18934;DHT22;9599;53.706;10.384;2022-07-06T14:29:11;20.80;92.80
18934;DHT22;9599;53.706;10.384;2022-07-06T14:31:39;20.90;92.90
18934;DHT22;9599;53.706;10.384;2022-07-06T14:34:08;21.00;94.20
18934;DHT22;9599;53.706;10.384;2022-07-06T14:36:36;21.20;91.70
18934;DHT22;9599;53.706;10.384;2022-07-06T14:39:05;21.10;93.10
18934;DHT22;9599;53.706;10.384;2022-07-06T14:41:32;21.30;93.40
18934;DHT22;9599;53.706;10.384;2022-07-06T14:44:02;21.30;92.00
18934;DHT22;9599;53.706;10.384;2022-07-06T14:46:30;21.10;91.70
18934;DHT22;9599;53.706;10.384;2022-07-06T14:48:58;20.90;91.10
18934;DHT22;9599;53.706;10.384;2022-07-06T14:51:27;20.80;92.80
18934;DHT22;9599;53.706;10.384;2022-07-06T14:53:55;20.80;93.50
18934;DHT22;9599;53.706;10.384;2022-07-06T14:56:23;20.80;93.20
18934;DHT22;9599;53.706;10.384;2022-07-06T14:58:51;20.70;92.70
18934;DHT22;9599;53.706;10.384;2022-07-06T15:01:39;20.60;93.90
18934;DHT22;9599;53.706;10.384;2022-07-06T15:04:07;20.70;93.10
18934;DHT22;9599;53.706;10.384;2022-07-06T15:06:36;20.90;93.90
18934;DHT22;9599;53.706;10.384;2022-07-06T15:09:22;20.90;93.00
18934;DHT22;9599;53.706;10.384;2022-07-06T15:11:51;20.70;93.30
18934;DHT22;9599;53.706;10.384;2022-07-06T15:14:19;20.70;93.70
18934;DHT22;9599;53.706;10.384;2022-07-06T15:16:47;20.60;93.40
18934;DHT22;9599;53.706;10.384;2022-07-06T15:19:15;20.60;94.20
18934;DHT22;9599;53.706;10.384;2022-07-06T15:21:45;20.40;93.70
18934;DHT22;9599;53.706;10.384;2022-07-06T15:24:13;20.40;94.80
18934;DHT22;9599;53.706;10.384;2022-07-06T15:26:41;20.30;95.10
18934;DHT22;9599;53.706;10.384;2022-07-06T15:29:09;20.30;95.90
18934;DHT22;9599;53.706;10.384;2022-07-06T15:31:37;20.40;96.10
18934;DHT22;9599;53.706;10.384;2022-07-06T15:34:05;20.40;95.90
18934;DHT22;9599;53.706;10.384;2022-07-06T15:36:32;20.20;95.70
18934;DHT22;9599;53.706;10.384;2022-07-06T15:39:02;20.20;96.10
18934;DHT22;9599;53.706;10.384;2022-07-06T15:41:30;20.10;96.20
18934;DHT22;9599;53.706;10.384;2022-07-06T15:43:58;20.00;96.50